createdAt,value
2022-08-19T00:02:16.207Z,100377.00
2022-08-19T00:04:43.618Z,100368.50
2022-08-19T00:07:11.060Z,100362.88
2022-08-19T00:09:38.381Z,100372.72
2022-08-19T00:12:05.852Z,100376.06
2022-08-19T00:14:33.313Z,100375.22
2022-08-19T00:17:01.964Z,100383.16
2022-08-19T00:19:30.076Z,100384.88
2022-08-19T00:21:57.431Z,100374.66
2022-08-19T00:24:24.749Z,100362.97
2022-08-19T00:26:52.744Z,100344.84
2022-08-19T00:29:21.786Z,100326.69
2022-08-19T00:31:50.672Z,100318.38
2022-08-19T00:34:18.295Z,100324.63
2022-08-19T00:36:46.266Z,100333.78
2022-08-19T00:39:14.976Z,100350.72
2022-08-19T00:41:44.284Z,100353.44
2022-08-19T00:44:16.022Z,100365.13
2022-08-19T00:46:45.661Z,100365.97
2022-08-19T00:49:31.664Z,100373.25
2022-08-19T00:52:14.630Z,100382.06
2022-08-19T00:54:42.597Z,100375.78
2022-08-19T00:57:15.851Z,100384.78
2022-08-19T01:00:00.751Z,100384.78
2022-08-19T01:02:31.976Z,100390.00
2022-08-19T01:05:01.724Z,100381.03
2022-08-19T01:07:29.072Z,100383.56
2022-08-19T01:10:04.869Z,100378.97
2022-08-19T01:12:32.283Z,100370.81
2022-08-19T01:15:00.643Z,100357.25
2022-08-19T01:17:28.498Z,100347.28
2022-08-19T01:19:55.812Z,100350.16
2022-08-19T01:22:35.680Z,100350.81
2022-08-19T01:25:06.219Z,100356.25
2022-08-19T01:27:45.813Z,100359.81
2022-08-19T01:30:21.724Z,100361.47
2022-08-19T01:32:50.500Z,100362.31
2022-08-19T01:35:19.093Z,100365.03
2022-08-19T01:37:51.059Z,100356.88
2022-08-19T01:40:21.370Z,100349.59
2022-08-19T01:42:52.517Z,100353.13
2022-08-19T01:45:22.475Z,100346.88
2022-08-19T01:47:55.598Z,100353.13
2022-08-19T01:50:32.650Z,100341.28
2022-08-19T01:53:03.632Z,100337.72
2022-08-19T01:55:37.008Z,100335.84
2022-08-19T01:58:18.011Z,100330.44
2022-08-19T02:00:46.405Z,100315.16
2022-08-19T02:03:14.054Z,100314.31
2022-08-19T02:05:42.632Z,100319.56
2022-08-19T02:08:11.072Z,100313.31
2022-08-19T02:10:44.779Z,100292.44
2022-08-19T02:13:14.426Z,100290.75
2022-08-19T02:15:42.386Z,100288.03
2022-08-19T02:18:10.097Z,100298.88
2022-08-19T02:20:39.542Z,100300.75
2022-08-19T02:23:13.455Z,100305.34
2022-08-19T02:25:45.529Z,100315.34
2022-08-19T02:28:15.571Z,100306.38
2022-08-19T02:30:47.320Z,100295.53
2022-08-19T02:33:14.714Z,100289.91
2022-08-19T02:35:47.114Z,100276.53
2022-08-19T02:38:27.496Z,100274.66
2022-08-19T02:41:03.305Z,100293.66
2022-08-19T02:43:34.473Z,100293.66
2022-08-19T02:46:02.894Z,100291.97
2022-08-19T02:48:31.107Z,100306.38
2022-08-19T02:50:58.437Z,100303.66
2022-08-19T02:53:28.446Z,100308.25
2022-08-19T02:55:55.907Z,100295.72
2022-08-19T02:58:25.046Z,100292.16
2022-08-19T03:00:55.221Z,100278.59
2022-08-19T03:03:22.628Z,100276.91
2022-08-19T03:05:56.052Z,100265.22
2022-08-19T03:08:25.405Z,100260.84
2022-08-19T03:10:54.068Z,100265.44
2022-08-19T03:13:21.861Z,100261.00
2022-08-19T03:15:49.530Z,100264.75
2022-08-19T03:18:17.871Z,100256.81
2022-08-19T03:20:51.425Z,100257.81
2022-08-19T03:23:18.891Z,100255.31
2022-08-19T03:25:47.696Z,100259.69
2022-08-19T03:28:30.670Z,100247.19
2022-08-19T03:31:06.254Z,100246.34
2022-08-19T03:33:53.873Z,100240.09
2022-08-19T03:36:24.389Z,100252.59
2022-08-19T03:38:59.932Z,100245.50
2022-08-19T03:41:35.757Z,100256.34
2022-08-19T03:44:19.631Z,100271.59
2022-08-19T03:46:49.443Z,100286.00
2022-08-19T03:49:18.090Z,100284.94
2022-08-19T03:51:47.807Z,100306.47
2022-08-19T03:54:17.291Z,100307.31
2022-08-19T03:56:46.162Z,100307.13
2022-08-19T03:59:19.408Z,100309.84
2022-08-19T04:01:47.091Z,100313.38
2022-08-19T04:04:14.554Z,100315.25
2022-08-19T04:06:41.946Z,100318.81
2022-08-19T04:09:11.338Z,100318.81
2022-08-19T04:11:45.738Z,100326.13
2022-08-19T04:14:15.823Z,100336.97
2022-08-19T04:16:45.376Z,100329.88
2022-08-19T04:19:13.313Z,100323.41
2022-08-19T04:21:41.110Z,100317.34
2022-08-19T04:24:10.708Z,100317.34
2022-08-19T04:26:39.045Z,100312.94
2022-08-19T04:29:12.500Z,100321.94
2022-08-19T04:31:41.925Z,100320.06
2022-08-19T04:34:11.994Z,100316.50
2022-08-19T04:36:42.335Z,100331.94
2022-08-19T04:39:13.748Z,100326.31
2022-08-19T04:42:00.089Z,100340.06
2022-08-19T04:44:28.117Z,100345.50
2022-08-19T04:46:55.481Z,100357.19
2022-08-19T04:49:23.919Z,100357.19
2022-08-19T04:51:54.918Z,100348.00
2022-08-19T04:54:38.607Z,100356.16
2022-08-19T04:57:10.867Z,100357.00
2022-08-19T04:59:39.999Z,100346.13
2022-08-19T05:02:09.605Z,100321.72
2022-08-19T05:04:40.276Z,100311.91
2022-08-19T05:07:11.108Z,100341.09
2022-08-19T05:09:56.779Z,100347.53
2022-08-19T05:12:29.096Z,100349.63
2022-08-19T05:14:58.245Z,100354.00
2022-08-19T05:17:29.073Z,100359.44
2022-08-19T05:20:16.626Z,100361.31
2022-08-19T05:22:47.742Z,100354.19
2022-08-19T05:25:21.560Z,100340.63
2022-08-19T05:27:49.639Z,100337.25
2022-08-19T05:30:18.271Z,100338.47
2022-08-19T05:32:45.964Z,100340.53
2022-08-19T05:35:13.418Z,100336.16
2022-08-19T05:37:41.623Z,100340.91
2022-08-19T05:40:10.341Z,100350.91
2022-08-19T05:42:57.009Z,100354.66
2022-08-19T05:45:24.326Z,100351.28
2022-08-19T05:47:51.561Z,100359.63
2022-08-19T05:50:18.961Z,100366.91
2022-08-19T05:52:50.136Z,100369.78
2022-08-19T05:55:21.219Z,100368.59
2022-08-19T05:57:48.564Z,100355.22
2022-08-19T06:00:19.506Z,100356.06
2022-08-19T06:02:52.147Z,100384.03
2022-08-19T06:05:21.081Z,100398.63
2022-08-19T06:07:48.535Z,100400.28
2022-08-19T06:10:15.911Z,100418.44
2022-08-19T06:12:43.182Z,100414.88
2022-08-19T06:15:14.446Z,100417.59
2022-08-19T06:17:42.944Z,100426.75
2022-08-19T06:20:14.515Z,100423.19
2022-08-19T06:22:45.557Z,100425.91
2022-08-19T06:25:15.199Z,100416.28
2022-08-19T06:28:11.424Z,100417.28
2022-08-19T06:30:30.643Z,100423.75
2022-08-19T06:32:58.025Z,100420.34
2022-08-19T06:35:26.399Z,100434.91
2022-08-19T06:37:53.905Z,100445.75
2022-08-19T06:40:21.326Z,100445.75
2022-08-19T06:42:51.659Z,100446.81
2022-08-19T06:45:34.424Z,100452.22
2022-08-19T06:48:03.692Z,100461.38
2022-08-19T06:50:30.984Z,100450.72
2022-08-19T06:52:58.323Z,100458.84
2022-08-19T06:55:33.446Z,100463.44
2022-08-19T06:58:04.843Z,100468.84
2022-08-19T07:00:33.019Z,100475.13
2022-08-19T07:03:04.816Z,100466.13
2022-08-19T07:05:40.811Z,100467.84
2022-08-19T07:08:13.574Z,100469.69
2022-08-19T07:10:44.820Z,100467.84
2022-08-19T07:13:12.605Z,100462.59
2022-08-19T07:15:40.049Z,100440.91
2022-08-19T07:18:07.383Z,100447.16
2022-08-19T07:20:40.328Z,100454.47
2022-08-19T07:23:10.522Z,100445.28
2022-08-19T07:25:44.433Z,100451.75
2022-08-19T07:28:20.208Z,100459.72
2022-08-19T07:30:52.828Z,100465.13
2022-08-19T07:33:20.742Z,100478.69
2022-08-19T07:35:48.136Z,100482.41
2022-08-19T07:38:17.098Z,100485.13
2022-08-19T07:40:46.780Z,100492.41
2022-08-19T07:43:17.012Z,100494.09
2022-08-19T07:45:46.045Z,100491.56
2022-08-19T07:48:13.723Z,100497.84
2022-08-19T07:50:41.528Z,100493.25
2022-08-19T07:53:08.797Z,100490.53
2022-08-19T07:55:41.967Z,100495.97
2022-08-19T07:58:16.545Z,100495.97
2022-08-19T08:00:45.479Z,100492.41
2022-08-19T08:03:14.119Z,100485.97
2022-08-19T08:06:00.140Z,100481.41
2022-08-19T08:08:48.189Z,100474.94
2022-08-19T08:11:21.149Z,100474.94
2022-08-19T08:14:00.908Z,100476.63
2022-08-19T08:16:39.328Z,100481.00
2022-08-19T08:19:14.705Z,100484.56
2022-08-19T08:21:51.911Z,100481.72
2022-08-19T08:24:19.694Z,100485.44
2022-08-19T08:26:52.147Z,100482.31
2022-08-19T08:29:24.461Z,100473.63
2022-08-19T08:32:00.146Z,100471.03
2022-08-19T08:34:27.714Z,100461.78
2022-08-19T08:36:54.943Z,100469.75
2022-08-19T08:39:22.685Z,100470.13
2022-08-19T08:42:10.263Z,100471.16
2022-08-19T08:44:50.339Z,100472.00
2022-08-19T08:47:23.235Z,100486.56
2022-08-19T08:49:51.299Z,100484.88
2022-08-19T08:52:32.149Z,100495.88
2022-08-19T08:55:10.549Z,100500.44
2022-08-19T08:57:51.660Z,100513.31
2022-08-19T09:00:25.429Z,100506.38
2022-08-19T09:02:52.747Z,100504.69
2022-08-19T09:05:26.150Z,100503.66
2022-08-19T09:08:14.859Z,100509.94
2022-08-19T09:10:48.469Z,100521.59
2022-08-19T09:13:50.189Z,100527.84
2022-08-19T09:16:21.862Z,100507.22
2022-08-19T09:18:59.910Z,100518.41
2022-08-19T09:21:30.536Z,100525.03
2022-08-19T09:24:03.289Z,100526.91
2022-08-19T09:26:47.440Z,100528.09
2022-08-19T09:29:22.544Z,100532.31
2022-08-19T09:31:51.059Z,100529.06
2022-08-19T09:34:22.171Z,100535.66
2022-08-19T09:36:56.358Z,100538.69
2022-08-19T09:39:23.816Z,100534.44
2022-08-19T09:41:51.285Z,100532.88
2022-08-19T09:44:20.306Z,100534.19
2022-08-19T09:46:51.826Z,100531.78
2022-08-19T09:49:22.792Z,100531.44
2022-08-19T09:51:56.368Z,100538.53
2022-08-19T09:54:25.212Z,100539.88
2022-08-19T09:56:56.133Z,100535.97
2022-08-19T09:59:23.560Z,100542.91
2022-08-19T10:01:52.447Z,100531.88
2022-08-19T10:04:22.313Z,100541.53
2022-08-19T10:06:53.968Z,100536.94
2022-08-19T10:09:33.794Z,100535.75
2022-08-19T10:12:03.759Z,100537.44
2022-08-19T10:14:31.962Z,100534.53
2022-08-19T10:17:01.260Z,100534.38
2022-08-19T10:19:36.881Z,100531.47
2022-08-19T10:22:10.059Z,100524.16
2022-08-19T10:24:39.675Z,100530.28
2022-08-19T10:27:10.722Z,100519.44
2022-08-19T10:29:38.386Z,100528.41
2022-08-19T10:32:14.325Z,100519.22
2022-08-19T10:34:48.345Z,100523.47
2022-08-19T10:37:28.851Z,100514.47
2022-08-19T10:39:58.802Z,100510.75
2022-08-19T10:42:26.215Z,100507.19
2022-08-19T10:44:53.600Z,100502.41
2022-08-19T10:47:25.663Z,100504.09
2022-08-19T10:50:13.555Z,100492.25
2022-08-19T10:52:49.727Z,100489.53
2022-08-19T10:55:39.862Z,100466.97
2022-08-19T10:58:15.951Z,100474.09
2022-08-19T11:00:46.610Z,100479.34
2022-08-19T11:03:14.007Z,100481.22
2022-08-19T11:05:43.008Z,100478.31
2022-08-19T11:08:23.205Z,100485.44
2022-08-19T11:11:01.624Z,100476.44
2022-08-19T11:13:31.050Z,100482.72
2022-08-19T11:16:08.216Z,100477.13
2022-08-19T11:18:40.652Z,100479.84
2022-08-19T11:21:24.635Z,100472.56
2022-08-19T11:23:54.572Z,100479.66
2022-08-19T11:26:24.494Z,100477.78
2022-08-19T11:28:54.853Z,100471.53
2022-08-19T11:31:29.216Z,100480.50
2022-08-19T11:34:02.557Z,100483.03
2022-08-19T11:36:32.072Z,100490.34
2022-08-19T11:39:00.087Z,100489.31
2022-08-19T11:41:27.696Z,100490.16
2022-08-19T11:43:56.360Z,100483.03
2022-08-19T11:46:25.463Z,100482.00
2022-08-19T11:48:53.143Z,100474.72
2022-08-19T11:51:25.499Z,100478.25
2022-08-19T11:53:54.824Z,100474.53
2022-08-19T11:56:23.382Z,100480.81
2022-08-19T11:58:51.158Z,100467.41
2022-08-19T12:01:20.613Z,100466.41
2022-08-19T12:03:50.226Z,100459.94
2022-08-19T12:06:29.518Z,100468.09
2022-08-19T12:08:58.922Z,100464.34
2022-08-19T12:11:27.029Z,100464.34
2022-08-19T12:13:55.412Z,100457.03
2022-08-19T12:16:27.776Z,100464.34
2022-08-19T12:18:57.213Z,100458.91
2022-08-19T12:21:29.603Z,100460.59
2022-08-19T12:23:58.917Z,100455.16
2022-08-19T12:26:28.017Z,100456.88
2022-08-19T12:28:56.361Z,100454.16
2022-08-19T12:31:23.653Z,100452.28
2022-08-19T12:33:53.409Z,100454.16
2022-08-19T12:36:22.957Z,100452.28
2022-08-19T12:38:50.781Z,100442.28
2022-08-19T12:41:19.868Z,100439.38
2022-08-19T12:43:47.988Z,100437.69
2022-08-19T12:46:16.937Z,100443.97
2022-08-19T12:48:46.099Z,100441.25
2022-08-19T12:51:17.139Z,100440.22
2022-08-19T12:53:45.276Z,100442.94
2022-08-19T12:56:15.356Z,100449.19
2022-08-19T12:58:50.415Z,100447.34
2022-08-19T13:01:22.935Z,100444.81
2022-08-19T13:03:55.485Z,100434.78
2022-08-19T13:06:23.575Z,100443.59
2022-08-19T13:08:51.204Z,100438.19
2022-08-19T13:11:21.640Z,100440.06
2022-08-19T13:13:51.416Z,100438.19
2022-08-19T13:16:21.260Z,100439.03
2022-08-19T13:18:50.214Z,100441.72
2022-08-19T13:21:17.515Z,100436.31
2022-08-19T13:23:48.475Z,100443.41
2022-08-19T13:26:17.003Z,100429.84
2022-08-19T13:29:04.668Z,100427.13
2022-08-19T13:31:53.690Z,100430.03
2022-08-19T13:34:30.791Z,100423.66
2022-08-19T13:36:59.874Z,100433.19
2022-08-19T13:39:28.489Z,100431.03
2022-08-19T13:41:55.903Z,100430.34
2022-08-19T13:44:23.521Z,100431.56
2022-08-19T13:46:53.877Z,100434.63
2022-08-19T13:49:26.928Z,100432.97
2022-08-19T13:51:54.221Z,100435.66
2022-08-19T13:54:21.526Z,100435.84
2022-08-19T13:56:48.955Z,100433.31
2022-08-19T13:59:16.630Z,100438.75
2022-08-19T14:01:44.232Z,100437.06
2022-08-19T14:04:11.677Z,100438.94
2022-08-19T14:06:39.020Z,100437.91
2022-08-19T14:09:06.706Z,100441.66
2022-08-19T14:11:34.090Z,100435.38
2022-08-19T14:14:01.344Z,100439.78
2022-08-19T14:16:28.732Z,100442.66
2022-08-19T14:18:56.095Z,100445.34
2022-08-19T14:21:26.100Z,100456.41
2022-08-19T14:23:54.391Z,100452.00
2022-08-19T14:26:22.920Z,100454.88
2022-08-19T14:28:51.046Z,100454.25
2022-08-19T14:31:19.929Z,100448.81
2022-08-19T14:33:51.498Z,100449.00
2022-08-19T14:36:20.686Z,100446.66
2022-08-19T14:38:49.784Z,100453.09
2022-08-19T14:41:20.289Z,100453.94
2022-08-19T14:43:49.502Z,100455.16
2022-08-19T14:46:23.266Z,100444.50
2022-08-19T14:48:52.675Z,100448.22
2022-08-19T14:51:24.905Z,100449.25
2022-08-19T14:53:52.929Z,100448.59
2022-08-19T14:56:24.347Z,100443.69
2022-08-19T14:58:55.463Z,100449.31
2022-08-19T15:01:24.150Z,100445.75
2022-08-19T15:03:55.851Z,100443.88
2022-08-19T15:06:24.914Z,100444.72
2022-08-19T15:08:54.396Z,100442.69
2022-08-19T15:11:25.085Z,100437.06
2022-08-19T15:13:52.459Z,100447.72
2022-08-19T15:16:20.661Z,100449.44
2022-08-19T15:18:51.252Z,100449.44
2022-08-19T15:21:27.189Z,100451.94
2022-08-19T15:23:57.146Z,100450.28
2022-08-19T15:26:26.182Z,100450.06
2022-08-19T15:28:53.506Z,100445.50
2022-08-19T15:31:28.432Z,100446.38
2022-08-19T15:33:58.616Z,100449.72
2022-08-19T15:36:27.763Z,100451.59
2022-08-19T15:38:56.743Z,100448.03
2022-08-19T15:41:27.447Z,100448.88
2022-08-19T15:43:58.765Z,100451.59
2022-08-19T15:46:29.419Z,100453.28
2022-08-19T15:48:59.848Z,100448.88
2022-08-19T15:51:35.391Z,100447.38
2022-08-19T15:54:06.295Z,100451.78
2022-08-19T15:56:58.229Z,100441.78
2022-08-19T15:59:47.142Z,100448.69
2022-08-19T16:02:37.771Z,100440.41
2022-08-19T16:05:28.833Z,100437.50
2022-08-19T16:07:56.552Z,100435.63
2022-08-19T16:10:26.864Z,100435.47
2022-08-19T16:12:57.660Z,100445.44
2022-08-19T16:15:30.619Z,100451.03
2022-08-19T16:17:58.207Z,100452.91
2022-08-19T16:20:27.419Z,100461.03
2022-08-19T16:22:58.279Z,100453.75
2022-08-19T16:25:29.325Z,100464.59
2022-08-19T16:28:07.977Z,100456.47
2022-08-19T16:30:40.160Z,100462.72
2022-08-19T16:33:10.845Z,100462.56
2022-08-19T16:35:38.728Z,100463.41
2022-08-19T16:38:07.087Z,100464.25
2022-08-19T16:40:35.531Z,100465.09
2022-08-19T16:43:02.990Z,100456.94
2022-08-19T16:45:30.810Z,100455.06
2022-08-19T16:47:58.215Z,100454.88
2022-08-19T16:50:47.871Z,100456.94
2022-08-19T16:53:12.993Z,100450.50
2022-08-19T16:55:41.221Z,100457.59
2022-08-19T16:58:09.287Z,100455.91
2022-08-19T17:00:36.638Z,100454.03
2022-08-19T17:03:14.691Z,100460.97
2022-08-19T17:05:46.675Z,100465.56
2022-08-19T17:08:16.931Z,100462.84
2022-08-19T17:10:56.853Z,100463.00
2022-08-19T17:13:33.079Z,100465.72
2022-08-19T17:16:00.692Z,100460.69
2022-08-19T17:18:31.707Z,100465.28
2022-08-19T17:21:01.229Z,100463.56
2022-08-19T17:23:43.222Z,100467.31
2022-08-19T17:26:18.054Z,100464.59
2022-08-19T17:28:49.612Z,100468.34
2022-08-19T17:31:19.295Z,100469.38
2022-08-19T17:33:48.413Z,100471.22
2022-08-19T17:36:25.548Z,100476.81
2022-08-19T17:38:55.304Z,100483.28
2022-08-19T17:41:24.409Z,100487.19
2022-08-19T17:43:52.416Z,100488.22
2022-08-19T17:46:20.522Z,100488.22
2022-08-19T17:48:52.713Z,100497.53
2022-08-19T17:51:32.443Z,100489.41
2022-08-19T17:54:00.552Z,100489.59
2022-08-19T17:56:28.849Z,100496.06
2022-08-19T17:59:00.331Z,100495.19
2022-08-19T18:01:34.702Z,100495.19
2022-08-19T18:04:19.803Z,100500.44
2022-08-19T18:06:53.331Z,100502.97
2022-08-19T18:09:26.945Z,100504.63
2022-08-19T18:11:56.991Z,100503.63
2022-08-19T18:14:33.359Z,100509.22
2022-08-19T18:17:15.203Z,100511.78
2022-08-19T18:19:44.016Z,100513.44
2022-08-19T18:22:26.738Z,100514.28
2022-08-19T18:24:55.544Z,100522.41
2022-08-19T18:27:23.313Z,100509.91
2022-08-19T18:29:50.736Z,100512.78
2022-08-19T18:32:23.560Z,100513.63
2022-08-19T18:34:51.794Z,100514.81
2022-08-19T18:37:19.730Z,100521.44
2022-08-19T18:40:05.471Z,100521.63
2022-08-19T18:42:51.344Z,100519.94
2022-08-19T18:45:37.454Z,100535.19
2022-08-19T18:48:27.511Z,100533.50
2022-08-19T18:50:58.169Z,100536.03
2022-08-19T18:53:28.480Z,100539.56
2022-08-19T18:55:56.924Z,100539.41
2022-08-19T18:58:32.465Z,100542.97
2022-08-19T19:01:03.775Z,100547.53
2022-08-19T19:03:31.099Z,100542.97
2022-08-19T19:05:58.851Z,100551.09
2022-08-19T19:08:27.170Z,100548.38
2022-08-19T19:10:56.777Z,100549.38
2022-08-19T19:13:24.107Z,100546.03
2022-08-19T19:15:51.671Z,100556.84
2022-08-19T19:18:19.023Z,100549.06
2022-08-19T19:20:46.310Z,100546.56
2022-08-19T19:23:13.626Z,100555.53
2022-08-19T19:25:44.830Z,100556.38
2022-08-19T19:28:25.385Z,100558.03
2022-08-19T19:30:54.512Z,100563.31
2022-08-19T19:33:21.969Z,100568.88
2022-08-19T19:35:49.350Z,100568.72
2022-08-19T19:38:16.793Z,100577.84
2022-08-19T19:40:44.649Z,100572.28
2022-08-19T19:43:11.992Z,100572.44
2022-08-19T19:45:39.304Z,100574.31
2022-08-19T19:48:06.830Z,100568.03
2022-08-19T19:50:34.126Z,100575.16
2022-08-19T19:53:01.485Z,100580.56
2022-08-19T19:55:29.132Z,100583.28
2022-08-19T19:57:57.806Z,100588.88
2022-08-19T20:00:25.775Z,100599.91
2022-08-19T20:02:55.909Z,100598.38
2022-08-19T20:05:23.510Z,100601.28
2022-08-19T20:08:11.559Z,100597.06
2022-08-19T20:10:41.036Z,100597.06
2022-08-19T20:13:09.224Z,100607.88
2022-08-19T20:15:42.138Z,100599.75
2022-08-19T20:18:12.098Z,100603.31
2022-08-19T20:20:39.441Z,100606.03
2022-08-19T20:23:06.977Z,100613.13
2022-08-19T20:25:34.443Z,100617.53
2022-08-19T20:28:01.729Z,100617.53
2022-08-19T20:30:33.212Z,100611.09
2022-08-19T20:33:01.992Z,100619.22
2022-08-19T20:35:29.370Z,100618.38
2022-08-19T20:37:58.344Z,100615.69
2022-08-19T20:40:29.637Z,100606.72
2022-08-19T20:42:57.462Z,100612.97
2022-08-19T20:45:33.060Z,100612.97
2022-08-19T20:48:03.199Z,100610.06
2022-08-19T20:50:35.439Z,100604.66
2022-08-19T20:53:14.216Z,100606.72
2022-08-19T20:55:44.900Z,100605.88
2022-08-19T20:58:13.442Z,100605.19
2022-08-19T21:00:44.813Z,100607.06
2022-08-19T21:03:16.357Z,100612.81
2022-08-19T21:05:45.713Z,100600.28
2022-08-19T21:08:14.560Z,100604.88
2022-08-19T21:10:42.573Z,100610.28
2022-08-19T21:13:10.091Z,100610.44
2022-08-19T21:15:40.615Z,100602.69
2022-08-19T21:18:08.371Z,100610.81
2022-08-19T21:20:36.152Z,100599.50
2022-08-19T21:23:09.098Z,100605.06
2022-08-19T21:25:38.822Z,100610.47
2022-08-19T21:28:06.724Z,100604.06
2022-08-19T21:30:34.919Z,100605.94
2022-08-19T21:33:03.019Z,100614.91
2022-08-19T21:35:30.605Z,100609.50
2022-08-19T21:37:58.067Z,100620.31
2022-08-19T21:40:26.566Z,100621.31
2022-08-19T21:42:54.195Z,100617.78
2022-08-19T21:45:22.913Z,100626.25
2022-08-19T21:47:50.844Z,100627.94
2022-08-19T21:50:19.065Z,100621.66
2022-08-19T21:52:46.879Z,100621.66
2022-08-19T21:55:15.305Z,100624.38
2022-08-19T21:57:43.121Z,100626.25
2022-08-19T22:00:17.566Z,100621.66
2022-08-19T22:02:46.777Z,100619.94
2022-08-19T22:05:14.328Z,100627.06
2022-08-19T22:07:42.892Z,100634.38
2022-08-19T22:10:10.879Z,100637.06
2022-08-19T22:12:39.409Z,100638.78
2022-08-19T22:15:15.437Z,100644.31
2022-08-19T22:17:45.665Z,100639.78
2022-08-19T22:20:16.499Z,100652.44
2022-08-19T22:22:50.178Z,100641.63
2022-08-19T22:25:42.616Z,100641.63
2022-08-19T22:28:12.220Z,100642.50
2022-08-19T22:30:42.494Z,100638.91
2022-08-19T22:33:13.052Z,100647.22
2022-08-19T22:35:41.827Z,100646.56
2022-08-19T22:38:10.833Z,100643.84
2022-08-19T22:40:41.278Z,100641.16
2022-08-19T22:43:34.031Z,100643.84
2022-08-19T22:46:01.352Z,100652.81
2022-08-19T22:48:30.716Z,100659.09
2022-08-19T22:51:17.275Z,100651.97
2022-08-19T22:53:46.628Z,100649.09
2022-08-19T22:56:18.108Z,100643.84
2022-08-19T22:58:46.912Z,100645.69
2022-08-19T23:01:27.150Z,100642.00
2022-08-19T23:03:59.469Z,100639.09
2022-08-19T23:06:27.989Z,100647.41
2022-08-19T23:09:06.782Z,100649.94
2022-08-19T23:11:41.608Z,100649.09
2022-08-19T23:14:11.361Z,100646.38
2022-08-19T23:16:39.514Z,100655.34
2022-08-19T23:19:10.449Z,100644.69
2022-08-19T23:21:41.013Z,100639.09
2022-08-19T23:24:09.375Z,100639.28
2022-08-19T23:26:37.287Z,100638.59
2022-08-19T23:29:24.074Z,100646.72
2022-08-19T23:31:51.571Z,100641.50
2022-08-19T23:34:18.911Z,100645.88
2022-08-19T23:36:46.370Z,100637.56
2022-08-19T23:39:13.652Z,100633.69
2022-08-19T23:41:41.011Z,100621.66
2022-08-19T23:44:14.630Z,100631.50
2022-08-19T23:46:51.899Z,100632.84
2022-08-19T23:49:24.005Z,100638.06
2022-08-19T23:51:51.607Z,100630.63
2022-08-19T23:54:18.886Z,100640.25
2022-08-19T23:56:46.274Z,100639.25
2022-08-19T23:59:13.584Z,100638.22
